Main page
METAR-TAF:

METAR-TAF

Airports :

Pyongyang, North Korea

Pyongyang Sunan International Airport

latitude: 39-02N, longitude: 125-47E, elevation: 36 m

METAR: missing

Time: 22:24 (13:54 UTC)

Forecast

The report was made 9 hours and 14 minutes ago, at 04:40 UTC
Forecast valid from 28 at 06 UTC to 29 at 06 UTC
Wind 10 kt from the West/Southwest
Visibility: 6000 m
Temporary
from 28 at 06 UTC to 28 at 12 UTC
Scattered clouds at a height of 2000 ft
Broken clouds at a height of 4000 ft
Becoming
from 28 at 10 UTC to 28 at 12 UTC
Wind 8 kt from the South/Southwest
Temporary
from 28 at 16 UTC to 29 at 01 UTC
Visibility: 0300 m
fog

TAF: ZKPY 280440Z 2806/2906 25005MPS 6000 NSC TEMPO 2806/2812 SCT020 BKN040 BECMG 2810/2812 21004MPS TEMPO 2816/2901 0300 FG

Weather observations and forecasts of more than 4000 airports (METAR and TAF reports).

The available stations are represented by yellow and red dots on the map.

Hover mouse over dot to see the name of the station.

Then click to see weather observations and forecasts.

To change the map : click on the green buttons with a black cross to zoom in, on the green button with a dash to zoom out, or on the green arrows for adjacent maps.


METAR-TAF: